Time;durP1;ratioP1;P1;durP2;ratioP2;P2;SDS_P1;SDS_P2;PMS_P1;PMS_P2;Temp;Humidity;BMP_temperature;BMP_pressure;BME280_temperature;BME280_humidity;BME280_pressure;Samples;Min_cycle;Max_cycle;Signal;HPM_P1;HPM_P2
2021/03/02 00:00:53;;;;;;;45.58;21.40;;;;;;;3.61;95.79;103385.06;5120407;27;20435;-45
2021/03/02 00:03:21;;;;;;;48.55;22.58;;;;;;;3.56;95.58;103381.19;5132611;27;20548;-46
2021/03/02 00:05:48;;;;;;;51.50;23.13;;;;;;;3.50;95.62;103381.97;5130262;27;20408;-45
2021/03/02 00:08:15;;;;;;;47.78;22.40;;;;;;;3.46;95.80;103385.09;5111740;27;20075;-46
2021/03/02 00:10:44;;;;;;;45.65;20.92;;;;;;;3.41;95.70;103381.19;5125315;27;20142;-47
2021/03/02 00:13:12;;;;;;;41.97;20.67;;;;;;;3.40;95.67;103384.97;5111336;28;20408;-42
2021/03/02 00:15:39;;;;;;;41.10;19.88;;;;;;;3.38;95.81;103385.19;5124163;27;20484;-44
2021/03/02 00:18:07;;;;;;;47.83;21.42;;;;;;;3.36;95.78;103387.28;5113311;27;20066;-44
2021/03/02 00:20:36;;;;;;;53.03;23.25;;;;;;;3.32;95.77;103380.44;5121565;27;20092;-46
2021/03/02 00:23:07;;;;;;;48.65;23.13;;;;;;;3.29;95.68;103388.22;5114761;27;20056;-44
2021/03/02 00:25:36;;;;;;;43.90;20.95;;;;;;;3.25;95.77;103386.88;5115413;27;20556;-46
2021/03/02 00:28:06;;;;;;;44.78;22.02;;;;;;;3.24;95.80;103376.88;5127178;27;20130;-44
2021/03/02 00:30:34;;;;;;;49.08;22.70;;;;;;;3.24;95.80;103385.16;5124156;27;20036;-42
2021/03/02 00:33:04;;;;;;;47.80;22.17;;;;;;;3.22;95.99;103385.34;5125836;27;20559;-44
2021/03/02 00:35:31;;;;;;;51.60;22.48;;;;;;;3.22;96.11;103387.25;5125128;27;20050;-43
2021/03/02 00:37:58;;;;;;;47.65;21.40;;;;;;;3.18;96.01;103385.94;5123999;27;20413;-45
2021/03/02 00:40:26;;;;;;;48.90;22.50;;;;;;;3.16;96.07;103386.13;5128303;27;20055;-44
2021/03/02 00:42:53;;;;;;;50.03;22.33;;;;;;;3.10;96.05;103379.47;5120880;27;20051;-46
2021/03/02 00:45:21;;;;;;;44.40;20.58;;;;;;;3.06;95.95;103375.34;5128893;27;20039;-43
2021/03/02 00:47:49;;;;;;;46.20;22.42;;;;;;;3.02;95.83;103370.38;5120567;27;20142;-44
2021/03/02 00:50:17;;;;;;;49.20;21.55;;;;;;;2.99;95.83;103374.41;5109890;27;20054;-45
2021/03/02 00:52:44;;;;;;;47.95;21.00;;;;;;;2.96;95.78;103366.50;5101957;28;20115;-46
2021/03/02 00:55:11;;;;;;;42.40;19.42;;;;;;;2.93;95.60;103372.38;5130510;27;20548;-46
2021/03/02 00:57:39;;;;;;;47.42;22.05;;;;;;;2.90;95.79;103378.28;5123624;28;20048;-45
2021/03/02 01:00:10;;;;;;;47.00;20.77;;;;;;;2.85;96.09;103375.22;5094315;28;20047;-43
2021/03/02 01:02:41;;;;;;;40.20;19.90;;;;;;;2.82;95.96;103378.34;5105113;28;20088;-44
2021/03/02 01:05:10;;;;;;;45.47;20.73;;;;;;;2.80;96.11;103374.91;5093061;28;20043;-45
2021/03/02 01:07:40;;;;;;;43.80;20.73;;;;;;;2.76;95.71;103368.06;5106257;28;20051;-45
2021/03/02 01:10:10;;;;;;;53.05;23.52;;;;;;;2.74;96.20;103367.41;5092324;28;20058;-45
2021/03/02 01:12:38;;;;;;;45.17;21.40;;;;;;;2.71;96.04;103373.28;5124495;28;20090;-44
2021/03/02 01:15:08;;;;;;;48.65;21.52;;;;;;;2.67;95.92;103367.28;5093524;28;20411;-44
2021/03/02 01:17:35;;;;;;;53.25;22.73;;;;;;;2.63;95.97;103365.91;5121938;28;20039;-45
2021/03/02 01:20:05;;;;;;;50.95;22.85;;;;;;;2.63;96.29;103360.41;5113739;28;20058;-44
2021/03/02 01:22:33;;;;;;;57.08;24.10;;;;;;;2.62;96.34;103360.59;5120694;28;20047;-43
2021/03/02 01:24:59;;;;;;;54.30;23.80;;;;;;;2.63;96.09;103365.06;5117655;28;20047;-44
2021/03/02 01:27:27;;;;;;;60.00;24.77;;;;;;;2.62;96.13;103363.34;5123805;28;20415;-45
2021/03/02 01:29:53;;;;;;;57.42;23.02;;;;;;;2.64;96.45;103364.88;5125143;28;20039;-46
2021/03/02 01:32:20;;;;;;;65.05;25.27;;;;;;;2.68;96.97;103362.63;5125401;28;20028;-45
2021/03/02 01:34:47;;;;;;;59.75;24.45;;;;;;;2.72;96.61;103362.06;5104408;28;20423;-45
2021/03/02 01:37:15;;;;;;;61.10;24.15;;;;;;;2.76;96.79;103362.56;5128861;28;20441;-44
2021/03/02 01:39:42;;;;;;;60.85;24.23;;;;;;;2.78;96.83;103357.72;5119960;28;20051;-48
2021/03/02 01:42:09;;;;;;;68.65;26.70;;;;;;;2.81;96.93;103357.31;5128336;28;20044;-44
2021/03/02 01:44:36;;;;;;;68.45;27.00;;;;;;;2.84;96.57;103356.09;5119440;28;20044;-45
2021/03/02 01:47:03;;;;;;;74.65;25.55;;;;;;;2.88;97.06;103357.44;5128881;27;20047;-45
2021/03/02 01:49:31;;;;;;;79.43;26.02;;;;;;;2.90;97.11;103355.34;5122773;27;20102;-47
2021/03/02 01:51:58;;;;;;;113.78;28.95;;;;;;;2.91;97.05;103351.56;5133409;27;20055;-45
2021/03/02 01:54:26;;;;;;;76.35;27.20;;;;;;;2.91;96.89;103346.91;5103937;27;20412;-45
2021/03/02 01:56:53;;;;;;;73.03;26.85;;;;;;;2.92;97.26;103347.75;5134755;27;20129;-45
2021/03/02 01:59:20;;;;;;;83.20;27.60;;;;;;;2.93;97.26;103344.81;5120491;27;20487;-44
2021/03/02 02:01:47;;;;;;;81.57;29.85;;;;;;;2.95;96.95;103336.34;5135299;27;20058;-45
2021/03/02 02:04:21;;;;;;;82.10;28.80;;;;;;;2.94;96.90;103340.16;5122143;27;20491;-46
2021/03/02 02:06:52;;;;;;;80.40;27.60;;;;;;;2.95;97.03;103339.97;5133908;27;20468;-47
2021/03/02 02:09:27;;;;;;;108.00;31.15;;;;;;;2.92;97.17;103336.72;5123060;27;20063;-46
2021/03/02 02:12:01;;;;;;;143.00;30.60;;;;;;;2.88;97.48;103339.00;5133519;27;20466;-47
2021/03/02 02:14:35;;;;;;;93.43;28.63;;;;;;;2.87;97.00;103340.03;5122565;27;20047;-45
2021/03/02 02:17:05;;;;;;;85.03;27.75;;;;;;;2.87;97.28;103334.53;5133541;27;20039;-47
2021/03/02 02:19:39;;;;;;;83.90;27.63;;;;;;;2.83;97.25;103333.19;5105435;28;20048;-46
2021/03/02 02:22:25;;;;;;;69.72;25.17;;;;;;;2.85;97.34;103338.50;5132189;27;20484;-49
2021/03/02 02:25:03;;;;;;;90.55;27.42;;;;;;;2.85;96.95;103339.38;5124089;27;20058;-46
2021/03/02 02:27:32;;;;;;;107.20;27.88;;;;;;;2.84;97.12;103334.88;5114225;28;20054;-46
2021/03/02 02:30:01;;;;;;;135.27;28.63;;;;;;;2.83;97.22;103335.94;5125252;27;20047;-50
2021/03/02 02:32:29;;;;;;;111.72;31.10;;;;;;;2.82;97.11;103328.69;5116248;27;20070;-48
2021/03/02 02:34:59;;;;;;;84.15;28.35;;;;;;;2.79;97.38;103336.53;5122889;27;20047;-48
2021/03/02 02:37:29;;;;;;;146.13;29.52;;;;;;;2.78;97.25;103329.28;5118233;27;20118;-49
2021/03/02 02:39:56;;;;;;;146.90;31.33;;;;;;;2.76;97.37;103333.09;5121490;27;20483;-45
2021/03/02 02:42:25;;;;;;;91.47;28.60;;;;;;;2.77;97.50;103336.69;5119177;27;20116;-46
2021/03/02 02:44:54;;;;;;;90.78;28.58;;;;;;;2.76;97.46;103333.09;5119563;27;20070;-47
2021/03/02 02:47:22;;;;;;;95.50;30.13;;;;;;;2.77;97.25;103339.47;5121310;27;20054;-46
2021/03/02 02:49:50;;;;;;;94.65;30.88;;;;;;;2.79;97.59;103331.00;5116971;27;20061;-46
2021/03/02 02:52:18;;;;;;;84.75;30.10;;;;;;;2.80;97.33;103328.03;5123687;27;20685;-50
2021/03/02 02:54:46;;;;;;;76.75;28.27;;;;;;;2.80;97.52;103328.03;5115958;27;20047;-48
2021/03/02 02:57:17;;;;;;;98.80;33.13;;;;;;;2.79;97.39;103331.88;5124473;27;20101;-47
2021/03/02 02:59:47;;;;;;;86.28;31.33;;;;;;;2.74;97.35;103326.91;5115478;27;20051;-50
2021/03/02 03:02:20;;;;;;;97.20;32.25;;;;;;;2.70;97.68;103321.94;5124638;27;20104;-49
2021/03/02 03:04:53;;;;;;;92.50;30.77;;;;;;;2.69;97.51;103320.22;5115431;27;20050;-48
2021/03/02 03:07:25;;;;;;;77.28;29.40;;;;;;;2.66;97.16;103323.34;5125125;27;20412;-49
2021/03/02 03:09:54;;;;;;;92.97;33.05;;;;;;;2.64;96.96;103322.69;5115234;27;20039;-47
2021/03/02 03:12:25;;;;;;;79.03;28.90;;;;;;;2.63;97.13;103337.50;5124538;27;20043;-47
2021/03/02 03:14:56;;;;;;;81.70;31.20;;;;;;;2.62;96.93;103322.00;5114832;27;20545;-48
2021/03/02 03:17:29;;;;;;;76.45;29.00;;;;;;;2.61;96.89;103331.31;5121066;27;20039;-47
2021/03/02 03:19:58;;;;;;;64.03;25.30;;;;;;;2.58;97.00;103329.81;5132116;27;20549;-47
2021/03/02 03:22:27;;;;;;;80.53;28.38;;;;;;;2.58;97.12;103323.44;5120344;27;20043;-47
2021/03/02 03:24:54;;;;;;;74.25;27.17;;;;;;;2.55;97.08;103323.81;5132060;27;20096;-50
2021/03/02 03:27:21;;;;;;;83.15;30.20;;;;;;;2.54;96.72;103322.09;5125739;27;20093;-47
2021/03/02 03:29:49;;;;;;;81.78;29.75;;;;;;;2.53;96.87;103323.13;5113037;28;20114;-49
2021/03/02 03:32:18;;;;;;;73.10;27.67;;;;;;;2.52;96.85;103324.19;5125310;27;20453;-53
2021/03/02 03:34:47;;;;;;;80.47;29.17;;;;;;;2.50;96.97;103323.50;5113282;28;20043;-55
2021/03/02 03:37:14;;;;;;;78.80;29.63;;;;;;;2.50;96.86;103320.75;5123288;27;20055;-52
2021/03/02 03:39:41;;;;;;;78.60;28.73;;;;;;;2.48;96.91;103317.31;5115344;27;20047;-50
2021/03/02 03:42:08;;;;;;;81.50;30.30;;;;;;;2.46;96.73;103322.16;5121615;27;20076;-52
2021/03/02 03:44:35;;;;;;;70.47;26.88;;;;;;;2.46;96.99;103319.41;5116947;27;20470;-56
2021/03/02 03:47:03;;;;;;;78.93;28.83;;;;;;;2.45;96.64;103315.78;5119047;27;20168;-52
2021/03/02 03:49:30;;;;;;;82.53;30.02;;;;;;;2.47;97.07;103315.59;5119280;27;20082;-50
2021/03/02 03:52:00;;;;;;;85.18;29.52;;;;;;;2.52;97.09;103318.66;5116110;27;20047;-51
2021/03/02 03:54:30;;;;;;;103.45;27.98;;;;;;;2.57;97.28;103318.97;5121300;27;20141;-51
2021/03/02 03:56:58;;;;;;;206.27;32.45;;;;;;;2.60;97.53;103318.59;5115655;27;20134;-51
2021/03/02 03:59:26;;;;;;;191.85;30.73;;;;;;;2.62;97.68;103324.75;5122537;27;20078;-50
2021/03/02 04:01:54;;;;;;;181.57;32.22;;;;;;;2.63;97.40;103319.06;5114788;27;20051;-49
2021/03/02 04:04:22;;;;;;;162.60;29.58;;;;;;;2.66;97.61;103320.59;5123735;27;20475;-48
2021/03/02 04:06:50;;;;;;;122.53;29.27;;;;;;;2.69;97.56;103325.75;5114167;27;20068;-52
2021/03/02 04:09:19;;;;;;;85.35;26.98;;;;;;;2.72;97.73;103328.13;5124043;27;20484;-48
2021/03/02 04:11:46;;;;;;;152.18;30.40;;;;;;;2.68;97.51;103324.88;5112638;27;20488;-49
2021/03/02 04:14:13;;;;;;;81.82;26.25;;;;;;;2.70;97.28;103320.03;5124101;27;20130;-48
2021/03/02 04:16:39;;;;;;;101.93;27.58;;;;;;;2.73;97.33;103321.56;5113203;27;20104;-49
2021/03/02 04:19:07;;;;;;;104.38;30.17;;;;;;;2.70;97.65;103321.94;5117030;27;20113;-48
2021/03/02 04:21:33;;;;;;;99.68;30.85;;;;;;;2.71;97.45;103315.38;5131810;27;20543;-50
2021/03/02 04:24:00;;;;;;;94.60;28.60;;;;;;;2.72;97.49;103320.72;5118736;27;20059;-52
2021/03/02 04:26:28;;;;;;;116.25;31.52;;;;;;;2.72;97.76;103320.72;5115842;27;20056;-54
2021/03/02 04:28:55;;;;;;;134.23;31.98;;;;;;;2.69;97.80;103309.19;5118253;27;20081;-52
2021/03/02 04:31:22;;;;;;;112.88;29.80;;;;;;;2.69;97.68;103309.19;5129363;27;20491;-52
2021/03/02 04:33:49;;;;;;;136.05;27.52;;;;;;;2.69;97.61;103303.69;5122401;27;20059;-53
2021/03/02 04:36:16;;;;;;;117.80;27.60;;;;;;;2.69;97.76;103309.19;5127214;27;20051;-49
2021/03/02 04:38:43;;;;;;;96.60;25.60;;;;;;;2.67;97.63;103305.78;5125090;27;20492;-50
2021/03/02 04:41:10;;;;;;;131.32;29.13;;;;;;;2.66;97.78;103306.81;5124450;27;20492;-53
2021/03/02 04:43:38;;;;;;;110.28;25.70;;;;;;;2.67;97.49;103309.38;5127548;27;20051;-51
2021/03/02 04:46:05;;;;;;;159.52;28.00;;;;;;;2.66;97.30;103304.06;5122257;27;20047;-53
2021/03/02 04:48:32;;;;;;;170.05;28.30;;;;;;;2.62;97.48;103309.06;5128683;27;20042;-52
2021/03/02 04:50:59;;;;;;;142.05;28.27;;;;;;;2.61;97.41;103301.00;5120645;27;20042;-51
2021/03/02 04:53:26;;;;;;;134.57;27.48;;;;;;;2.59;97.38;103312.22;5128839;27;20103;-52
2021/03/02 04:55:53;;;;;;;128.38;28.02;;;;;;;2.61;97.66;103307.38;5119814;27;20047;-48
2021/03/02 04:58:20;;;;;;;164.20;27.77;;;;;;;2.61;97.72;103312.03;5130102;27;20048;-49
2021/03/02 05:00:47;;;;;;;208.07;30.48;;;;;;;2.58;97.67;103310.53;5119236;28;20485;-52
2021/03/02 05:03:14;;;;;;;160.25;27.73;;;;;;;2.54;97.83;103303.66;5129476;28;20098;-51
2021/03/02 05:05:41;;;;;;;116.07;26.90;;;;;;;2.56;97.69;103303.47;5118671;28;20138;-50
2021/03/02 05:08:08;;;;;;;239.15;31.33;;;;;;;2.57;98.07;103296.94;5131814;28;20498;-50
2021/03/02 05:10:35;;;;;;;173.27;30.33;;;;;;;2.55;97.94;103299.00;5117341;28;20047;-54
2021/03/02 05:13:02;;;;;;;119.63;26.13;;;;;;;2.58;97.80;103295.88;5131350;28;20062;-54
2021/03/02 05:15:29;;;;;;;150.65;27.42;;;;;;;2.59;97.90;103301.22;5119893;28;20089;-49
2021/03/02 05:17:57;;;;;;;166.73;28.38;;;;;;;2.57;97.72;103302.44;5128667;28;20114;-54
2021/03/02 05:20:24;;;;;;;145.27;29.73;;;;;;;2.57;98.08;103299.69;5122253;28;20585;-52
2021/03/02 05:22:51;;;;;;;155.88;29.92;;;;;;;2.58;98.00;103304.16;5128588;27;20552;-52
2021/03/02 05:25:18;;;;;;;193.80;30.25;;;;;;;2.57;98.01;103307.94;5131277;27;20396;-51
2021/03/02 05:27:44;;;;;;;165.98;26.77;;;;;;;2.57;97.94;103305.19;5122262;27;20040;-48
2021/03/02 05:30:12;;;;;;;218.18;29.65;;;;;;;2.57;98.00;103307.94;5118753;27;20122;-50
2021/03/02 05:32:39;;;;;;;119.60;26.23;;;;;;;2.60;98.25;103302.06;5124821;27;20409;-52
2021/03/02 05:35:08;;;;;;;172.50;27.30;;;;;;;2.58;97.97;103305.00;5117790;27;20407;-48
2021/03/02 05:37:37;;;;;;;167.35;26.65;;;;;;;2.59;98.19;103305.88;5123628;27;20039;-49
2021/03/02 05:40:06;;;;;;;97.45;24.38;;;;;;;2.59;98.01;103315.00;5132558;27;20086;-50
2021/03/02 05:42:34;;;;;;;184.13;27.42;;;;;;;2.61;98.30;103312.88;5123922;27;20165;-47
2021/03/02 05:45:02;;;;;;;170.68;27.90;;;;;;;2.61;98.12;103309.25;5132336;27;20414;-51
2021/03/02 05:47:31;;;;;;;98.22;25.10;;;;;;;2.61;98.00;103306.50;5126284;27;20480;-46
2021/03/02 05:49:58;;;;;;;121.35;28.20;;;;;;;2.63;98.13;103315.44;5116326;27;20054;-47
2021/03/02 05:52:26;;;;;;;95.97;26.58;;;;;;;2.63;97.92;103310.78;5126971;27;20074;-47
2021/03/02 05:54:53;;;;;;;124.55;28.20;;;;;;;2.62;98.08;103308.22;5115741;27;20048;-48
2021/03/02 05:57:22;;;;;;;108.15;29.98;;;;;;;2.62;98.41;103317.34;5127659;27;20503;-46
2021/03/02 05:59:50;;;;;;;104.38;30.40;;;;;;;2.64;98.19;103312.50;5114529;28;20076;-48
2021/03/02 06:02:17;;;;;;;132.15;30.52;;;;;;;2.65;98.36;103307.84;5128201;27;20488;-46
2021/03/02 06:04:47;;;;;;;98.80;27.13;;;;;;;2.69;98.07;103303.69;5115342;28;20086;-48
2021/03/02 06:07:14;;;;;;;113.80;29.23;;;;;;;2.72;98.10;103304.19;5125513;27;20039;-49
2021/03/02 06:09:45;;;;;;;110.60;29.63;;;;;;;2.72;98.19;103298.66;5117203;27;20043;-47
2021/03/02 06:12:12;;;;;;;97.93;27.95;;;;;;;2.72;98.14;103298.66;5123541;27;20051;-47
2021/03/02 06:14:39;;;;;;;90.38;26.73;;;;;;;2.75;98.19;103297.44;5118791;27;20100;-49
2021/03/02 06:17:07;;;;;;;97.95;28.60;;;;;;;2.72;98.11;103286.78;5121483;27;20373;-46
2021/03/02 06:19:42;;;;;;;109.82;30.13;;;;;;;2.73;97.94;103294.88;5119827;27;20048;-46
2021/03/02 06:22:30;;;;;;;94.78;28.85;;;;;;;2.73;98.19;103305.03;5120061;27;20099;-47
2021/03/02 06:24:58;;;;;;;101.20;28.50;;;;;;;2.71;98.14;103296.09;5120998;27;20462;-47
2021/03/02 06:27:25;;;;;;;92.45;28.05;;;;;;;2.74;97.79;103301.22;5125800;27;20093;-48
2021/03/02 06:30:10;;;;;;;113.75;31.15;;;;;;;2.77;98.25;103295.34;5127431;27;20493;-45
2021/03/02 06:32:39;;;;;;;128.23;29.08;;;;;;;2.73;97.99;103288.50;5126220;27;20051;-47
2021/03/02 06:35:07;;;;;;;81.22;27.10;;;;;;;2.74;98.14;103292.97;5125811;27;20043;-47
2021/03/02 06:37:41;;;;;;;106.82;30.13;;;;;;;2.76;97.86;103288.13;5109281;27;20065;-47
2021/03/02 06:40:11;;;;;;;109.07;29.20;;;;;;;2.76;98.29;103288.97;5125614;27;20078;-45
2021/03/02 06:42:40;;;;;;;71.30;24.65;;;;;;;2.78;98.36;103287.94;5110484;27;20050;-44
2021/03/02 06:45:09;;;;;;;122.93;27.73;;;;;;;2.76;98.02;103288.13;5125240;27;20257;-44
2021/03/02 06:47:37;;;;;;;140.02;28.38;;;;;;;2.76;98.12;103282.59;5130656;27;20442;-47
2021/03/02 06:50:21;;;;;;;86.15;26.85;;;;;;;2.79;98.15;103290.50;5123563;27;20090;-47
2021/03/02 06:52:48;;;;;;;131.57;32.47;;;;;;;2.76;98.18;103290.88;5130644;27;20052;-44
2021/03/02 06:55:26;;;;;;;161.43;30.83;;;;;;;2.79;98.19;103287.75;5122483;27;20058;-46
2021/03/02 06:58:14;;;;;;;141.18;27.40;;;;;;;2.77;98.29;103289.84;5131351;27;20791;-47
2021/03/02 07:00:45;;;;;;;130.05;27.48;;;;;;;2.77;98.25;103292.59;5125585;27;20076;-45
2021/03/02 07:03:22;;;;;;;124.55;24.90;;;;;;;2.77;98.44;103295.34;5129066;27;20043;-45
2021/03/02 07:05:49;;;;;;;118.32;24.33;;;;;;;2.76;98.50;103293.63;5124848;27;20055;-47
2021/03/02 07:08:17;;;;;;;147.02;30.60;;;;;;;2.76;98.44;103293.63;5130052;27;20041;-47
2021/03/02 07:10:49;;;;;;;187.13;30.67;;;;;;;2.76;98.34;103300.00;5122705;27;20043;-47
2021/03/02 07:13:17;;;;;;;114.03;29.42;;;;;;;2.77;98.31;103306.38;5130743;27;20067;-47
2021/03/02 07:15:46;;;;;;;115.40;29.50;;;;;;;2.80;98.46;103299.63;5121716;27;20099;-45
2021/03/02 07:18:15;;;;;;;145.65;30.35;;;;;;;2.81;98.23;103304.06;5130239;27;20104;-47
2021/03/02 07:20:48;;;;;;;185.15;28.77;;;;;;;2.82;98.04;103301.13;5122286;27;20088;-44
2021/03/02 07:23:18;;;;;;;200.57;32.70;;;;;;;2.81;98.36;103309.59;5130559;27;20043;-46
2021/03/02 07:25:48;;;;;;;165.40;33.33;;;;;;;2.81;98.08;103310.44;5120464;27;20035;-46
2021/03/02 07:28:16;;;;;;;113.45;30.75;;;;;;;2.81;98.28;103306.84;5114298;27;20043;-49
2021/03/02 07:30:47;;;;;;;110.78;30.20;;;;;;;2.83;98.28;103307.50;5119399;27;20040;-43
2021/03/02 07:33:17;;;;;;;118.75;28.20;;;;;;;2.79;98.61;103315.31;5132050;27;20123;-47
2021/03/02 07:35:45;;;;;;;118.60;28.83;;;;;;;2.80;98.48;103322.50;5120185;27;20050;-46
2021/03/02 07:38:14;;;;;;;106.25;27.83;;;;;;;2.80;98.45;103322.50;5132567;27;20120;-44
2021/03/02 07:40:48;;;;;;;126.13;29.25;;;;;;;2.81;98.37;103321.47;5128625;27;20103;-44
2021/03/02 07:43:31;;;;;;;125.57;30.13;;;;;;;2.84;98.34;103325.75;5132633;27;20051;-48
2021/03/02 07:46:00;;;;;;;133.75;30.80;;;;;;;2.88;98.41;103336.22;5125178;27;20220;-45
2021/03/02 07:48:33;;;;;;;137.63;29.17;;;;;;;2.91;98.40;103335.00;5107957;28;20855;-45
2021/03/02 07:51:15;;;;;;;117.03;26.83;;;;;;;2.88;98.64;103330.72;5118625;27;20124;-44
2021/03/02 07:53:43;;;;;;;96.88;30.58;;;;;;;2.88;98.45;103333.47;5112386;28;20055;-46
2021/03/02 07:56:20;;;;;;;85.40;27.33;;;;;;;2.89;98.40;103329.69;5118765;27;20455;-46
2021/03/02 07:59:16;;;;;;;134.90;28.67;;;;;;;2.89;98.47;103337.09;5111865;28;20071;-45
2021/03/02 08:01:44;;;;;;;107.18;30.55;;;;;;;2.82;98.20;103336.97;5124664;27;20403;-44
2021/03/02 08:04:26;;;;;;;99.03;28.70;;;;;;;2.85;98.77;103331.09;5112970;27;20057;-46
2021/03/02 08:06:54;;;;;;;78.28;26.38;;;;;;;2.89;98.69;103329.69;5124813;27;20051;-47
2021/03/02 08:09:30;;;;;;;80.43;27.92;;;;;;;2.93;98.67;103333.78;5112933;27;20047;-47
2021/03/02 08:12:24;;;;;;;98.40;30.02;;;;;;;2.96;98.68;103338.06;5124160;27;20047;-43
2021/03/02 08:14:51;;;;;;;96.78;27.70;;;;;;;2.92;98.65;103333.97;5113144;28;20345;-45
2021/03/02 08:17:19;;;;;;;85.07;28.65;;;;;;;2.98;98.82;103335.97;5124774;27;20047;-47
2021/03/02 08:19:48;;;;;;;120.78;28.98;;;;;;;3.02;98.62;103337.28;5112622;27;20052;-47
2021/03/02 08:22:47;;;;;;;125.93;30.45;;;;;;;3.01;98.70;103349.38;5124553;27;20055;-45
2021/03/02 08:25:24;;;;;;;88.57;25.13;;;;;;;3.05;98.67;103347.94;5114581;27;20040;-44
2021/03/02 08:27:56;;;;;;;80.63;25.30;;;;;;;3.06;98.80;103346.91;5122773;27;20040;-45
2021/03/02 08:30:25;;;;;;;81.63;25.83;;;;;;;3.05;98.63;103340.53;5113251;27;20096;-47
2021/03/02 08:32:53;;;;;;;85.25;26.55;;;;;;;3.13;98.70;103347.03;5118649;27;20055;-50
2021/03/02 08:35:23;;;;;;;85.93;27.23;;;;;;;3.20;98.71;103345.22;5130422;27;20054;-45
2021/03/02 08:37:51;;;;;;;106.40;30.30;;;;;;;3.20;98.77;103348.81;5118930;27;20458;-45
2021/03/02 08:40:21;;;;;;;80.72;26.90;;;;;;;3.25;98.59;103337.22;5131028;27;20081;-49
2021/03/02 08:43:03;;;;;;;92.63;28.23;;;;;;;3.28;98.49;103345.13;5118231;27;20160;-45
2021/03/02 08:45:34;;;;;;;68.13;24.90;;;;;;;3.29;98.51;103338.56;5131373;27;20126;-45
2021/03/02 08:48:15;;;;;;;74.22;26.30;;;;;;;3.32;98.45;103333.53;5118301;27;20088;-45
2021/03/02 08:50:43;;;;;;;79.63;26.65;;;;;;;3.30;98.43;103334.75;5112838;27;20074;-44
2021/03/02 08:53:47;;;;;;;68.32;24.23;;;;;;;3.33;98.43;103334.38;5118471;27;20048;-44
2021/03/02 08:56:19;;;;;;;59.22;24.77;;;;;;;3.33;98.41;103342.66;5048206;28;20049;-44
2021/03/02 08:58:49;;;;;;;69.50;24.45;;;;;;;3.34;98.37;103342.47;5048264;28;20048;-44
2021/03/02 09:01:26;;;;;;;74.28;27.13;;;;;;;3.39;98.25;103347.44;5089566;28;20059;-45
2021/03/02 09:04:04;;;;;;;70.47;26.20;;;;;;;3.48;98.35;103346.25;5118902;28;20051;-45
2021/03/02 09:06:34;;;;;;;89.80;29.08;;;;;;;3.58;98.51;103355.13;5130065;28;20051;-44
2021/03/02 09:09:04;;;;;;;79.20;28.23;;;;;;;3.63;98.40;103352.63;5123464;28;20096;-47
2021/03/02 09:11:32;;;;;;;72.75;25.75;;;;;;;3.68;98.22;103352.91;5112664;28;20149;-48
2021/03/02 09:14:02;;;;;;;72.05;26.77;;;;;;;3.73;98.19;103347.66;5124073;28;20091;-46
2021/03/02 09:16:33;;;;;;;83.82;25.83;;;;;;;3.77;98.20;103351.75;5110951;28;20496;-48
2021/03/02 09:19:06;;;;;;;76.38;26.15;;;;;;;3.78;98.00;103350.72;5118180;28;20139;-46
2021/03/02 09:21:34;;;;;;;63.17;25.92;;;;;;;3.79;97.60;103349.66;5131928;28;20056;-46
2021/03/02 09:24:01;;;;;;;62.65;26.42;;;;;;;3.85;97.73;103349.91;5117073;28;20085;-50
2021/03/02 09:26:30;;;;;;;54.72;25.60;;;;;;;3.89;97.80;103356.78;5115847;28;20051;-47
2021/03/02 09:28:58;;;;;;;63.30;27.23;;;;;;;3.92;97.60;103356.41;5121517;28;20051;-44
2021/03/02 09:31:28;;;;;;;61.40;26.92;;;;;;;3.99;97.47;103346.28;5112922;28;20075;-45
2021/03/02 09:33:56;;;;;;;60.65;26.52;;;;;;;4.02;97.58;103351.41;5120367;28;20043;-45
2021/03/02 09:36:24;;;;;;;68.22;28.25;;;;;;;4.06;97.47;103348.06;5114221;28;20492;-45
2021/03/02 09:38:53;;;;;;;64.30;27.85;;;;;;;4.13;97.39;103340.72;5118062;28;20043;-46
2021/03/02 09:41:36;;;;;;;63.08;28.38;;;;;;;4.24;97.17;103346.75;5116341;28;20476;-46
2021/03/02 09:44:22;;;;;;;65.95;28.60;;;;;;;4.26;97.06;103351.03;5117868;28;20047;-46
2021/03/02 09:46:52;;;;;;;59.38;27.83;;;;;;;4.33;97.14;103342.84;5114111;28;20433;-45
2021/03/02 09:49:43;;;;;;;64.55;29.65;;;;;;;4.49;97.12;103342.56;5120537;28;20043;-44
2021/03/02 09:52:31;;;;;;;53.17;25.45;;;;;;;4.95;97.75;103344.88;5111986;28;20058;-44
2021/03/02 09:55:21;;;;;;;53.47;26.08;;;;;;;5.64;98.06;103340.19;5122398;28;20434;-46
2021/03/02 09:57:53;;;;;;;45.83;23.38;;;;;;;6.16;96.40;103336.81;5109881;28;20059;-48
2021/03/02 10:00:23;;;;;;;;;;;;;;;6.62;94.40;103338.81;5117581;28;20043;-44
2021/03/02 10:02:53;;;;;;;47.45;22.70;;;;;;;6.68;91.16;103342.66;5131158;28;20017;-48
2021/03/02 10:05:35;;;;;;;46.75;23.42;;;;;;;6.47;89.54;103339.00;5117436;28;20055;-45
2021/03/02 10:08:21;;;;;;;41.20;22.13;;;;;;;6.52;89.52;103341.16;5110695;28;20052;-48
2021/03/02 10:10:48;;;;;;;37.63;20.25;;;;;;;7.24;89.11;103345.81;5126819;27;20060;-45
2021/03/02 10:13:25;;;;;;;37.80;18.98;;;;;;;7.17;85.52;103342.22;5113323;28;20079;-44
2021/03/02 10:16:14;;;;;;;34.60;18.30;;;;;;;6.75;86.46;103330.50;5120837;27;20056;-45
2021/03/02 10:18:54;;;;;;;35.08;19.52;;;;;;;6.49;87.38;103331.31;5133221;27;20071;-44
2021/03/02 10:21:22;;;;;;;31.27;17.50;;;;;;;6.51;87.25;103331.97;5126929;27;20079;-47
2021/03/02 10:23:51;;;;;;;34.10;17.95;;;;;;;6.62;87.61;103332.41;5114909;27;20183;-43
2021/03/02 10:26:23;;;;;;;34.38;18.65;;;;;;;7.33;86.37;103327.88;5116983;27;20079;-45
2021/03/02 10:28:50;;;;;;;38.10;21.27;;;;;;;8.10;84.06;103321.34;5134547;27;20457;-47
2021/03/02 10:31:17;;;;;;;34.63;19.10;;;;;;;8.64;81.56;103320.78;5127360;27;20062;-43
2021/03/02 10:33:45;;;;;;;36.30;20.05;;;;;;;8.95;81.32;103313.50;5113129;27;20141;-43
2021/03/02 10:36:21;;;;;;;35.25;19.25;;;;;;;8.76;80.38;103314.50;5125124;27;20059;-44
2021/03/02 10:38:50;;;;;;;33.20;18.55;;;;;;;8.43;81.08;103318.38;5114620;27;20097;-49
2021/03/02 10:41:19;;;;;;;30.33;18.33;;;;;;;8.19;82.29;103310.84;5123619;27;20096;-47
2021/03/02 10:43:48;;;;;;;31.48;19.02;;;;;;;8.01;81.77;103314.34;5116490;27;20051;-47
2021/03/02 10:46:16;;;;;;;34.70;19.17;;;;;;;8.37;82.31;103318.47;5103365;27;20395;-45
2021/03/02 10:48:44;;;;;;;28.05;17.30;;;;;;;9.31;78.17;103315.47;5117537;27;20559;-44
2021/03/02 10:51:11;;;;;;;33.30;18.52;;;;;;;10.05;75.21;103321.84;5120098;27;20039;-42
2021/03/02 10:53:39;;;;;;;30.08;18.73;;;;;;;11.01;73.06;103319.69;5119776;27;20119;-43
2021/03/02 10:56:06;;;;;;;27.33;17.30;;;;;;;11.70;71.05;103314.31;5117933;27;20096;-46
2021/03/02 10:58:34;;;;;;;28.25;17.58;;;;;;;11.79;68.66;103307.25;5122421;27;20108;-43
2021/03/02 11:01:01;;;;;;;29.25;18.63;;;;;;;11.89;67.59;103312.22;5115078;27;20047;-45
2021/03/02 11:03:28;;;;;;;29.55;17.83;;;;;;;11.64;66.83;103304.09;5122359;27;20059;-46
2021/03/02 11:05:55;;;;;;;27.88;17.85;;;;;;;11.72;66.98;103307.38;5130739;27;20090;-46
2021/03/02 11:08:23;;;;;;;29.17;17.40;;;;;;;11.60;65.73;103309.31;5121743;27;20047;-42
2021/03/02 11:10:51;;;;;;;29.58;18.42;;;;;;;11.23;66.69;103303.19;5130967;27;20043;-51
2021/03/02 11:13:18;;;;;;;30.42;18.40;;;;;;;10.85;68.06;103305.59;5121886;27;20491;-45
2021/03/02 11:15:46;;;;;;;27.25;16.92;;;;;;;10.62;68.64;103312.84;5131275;27;20058;-46
2021/03/02 11:18:14;;;;;;;26.23;16.20;;;;;;;10.53;68.66;103305.06;5120121;27;20051;-46
2021/03/02 11:20:43;;;;;;;26.95;17.40;;;;;;;10.48;68.76;103300.22;5132818;27;20047;-45
2021/03/02 11:23:11;;;;;;;27.05;17.48;;;;;;;10.41;68.02;103305.03;5119384;27;20380;-44
2021/03/02 11:25:38;;;;;;;25.65;16.10;;;;;;;10.38;68.29;103296.31;5125227;27;20054;-44
2021/03/02 11:28:08;;;;;;;27.08;16.95;;;;;;;10.26;68.28;103296.25;5125176;27;20074;-45